sensor_id;sensor_type;location;lat;lon;timestamp;temperature;humidity
29575;DHT22;16507;51.046;6.406;2023-12-20T00:00:57;8.80;99.90
29575;DHT22;16507;51.046;6.406;2023-12-20T00:03:23;8.80;99.90
29575;DHT22;16507;51.046;6.406;2023-12-20T00:05:49;8.90;99.90
29575;DHT22;16507;51.046;6.406;2023-12-20T00:08:15;8.80;99.90
29575;DHT22;16507;51.046;6.406;2023-12-20T00:10:41;8.80;99.90
29575;DHT22;16507;51.046;6.406;2023-12-20T00:13:07;8.70;99.90
29575;DHT22;16507;51.046;6.406;2023-12-20T00:15:33;8.70;99.90
29575;DHT22;16507;51.046;6.406;2023-12-20T00:17:59;8.70;99.90
29575;DHT22;16507;51.046;6.406;2023-12-20T00:20:26;8.60;99.90
29575;DHT22;16507;51.046;6.406;2023-12-20T00:22:53;8.70;99.90
29575;DHT22;16507;51.046;6.406;2023-12-20T00:25:19;8.70;99.90
29575;DHT22;16507;51.046;6.406;2023-12-20T00:27:45;8.60;99.90
29575;DHT22;16507;51.046;6.406;2023-12-20T00:30:11;8.70;99.90
29575;DHT22;16507;51.046;6.406;2023-12-20T00:32:36;8.70;99.90
29575;DHT22;16507;51.046;6.406;2023-12-20T00:35:02;8.50;99.90
29575;DHT22;16507;51.046;6.406;2023-12-20T00:37:28;8.60;99.90
29575;DHT22;16507;51.046;6.406;2023-12-20T00:39:53;8.60;99.90
29575;DHT22;16507;51.046;6.406;2023-12-20T00:42:19;8.50;99.90
29575;DHT22;16507;51.046;6.406;2023-12-20T00:44:44;8.50;99.90
29575;DHT22;16507;51.046;6.406;2023-12-20T00:47:10;8.50;99.90
29575;DHT22;16507;51.046;6.406;2023-12-20T00:49:36;8.60;99.90
29575;DHT22;16507;51.046;6.406;2023-12-20T00:52:04;8.50;99.90
29575;DHT22;16507;51.046;6.406;2023-12-20T00:54:30;8.50;99.90
29575;DHT22;16507;51.046;6.406;2023-12-20T00:56:56;8.60;99.90
29575;DHT22;16507;51.046;6.406;2023-12-20T00:59:21;8.60;99.90
29575;DHT22;16507;51.046;6.406;2023-12-20T01:01:47;8.60;99.90
29575;DHT22;16507;51.046;6.406;2023-12-20T01:04:12;8.40;99.90
29575;DHT22;16507;51.046;6.406;2023-12-20T01:06:38;8.40;99.90
29575;DHT22;16507;51.046;6.406;2023-12-20T01:09:04;8.20;99.90
29575;DHT22;16507;51.046;6.406;2023-12-20T01:11:29;8.10;99.90
29575;DHT22;16507;51.046;6.406;2023-12-20T01:13:55;7.90;99.90
29575;DHT22;16507;51.046;6.406;2023-12-20T01:16:20;7.80;99.90
29575;DHT22;16507;51.046;6.406;2023-12-20T01:18:46;7.70;99.90
29575;DHT22;16507;51.046;6.406;2023-12-20T01:21:12;7.70;99.90
29575;DHT22;16507;51.046;6.406;2023-12-20T01:23:37;7.60;99.90
29575;DHT22;16507;51.046;6.406;2023-12-20T01:26:03;7.50;99.90
29575;DHT22;16507;51.046;6.406;2023-12-20T01:28:30;7.50;99.90
29575;DHT22;16507;51.046;6.406;2023-12-20T01:30:57;7.50;99.90
29575;DHT22;16507;51.046;6.406;2023-12-20T01:33:23;7.40;99.90
29575;DHT22;16507;51.046;6.406;2023-12-20T01:35:48;7.40;99.90
29575;DHT22;16507;51.046;6.406;2023-12-20T01:38:14;7.40;99.90
29575;DHT22;16507;51.046;6.406;2023-12-20T01:40:40;7.40;99.90
29575;DHT22;16507;51.046;6.406;2023-12-20T01:43:08;7.30;99.90
29575;DHT22;16507;51.046;6.406;2023-12-20T01:45:34;7.30;99.90
29575;DHT22;16507;51.046;6.406;2023-12-20T01:48:00;7.20;99.90
29575;DHT22;16507;51.046;6.406;2023-12-20T01:50:28;7.20;99.90
29575;DHT22;16507;51.046;6.406;2023-12-20T01:52:55;7.10;99.90
29575;DHT22;16507;51.046;6.406;2023-12-20T01:55:23;7.10;99.90
29575;DHT22;16507;51.046;6.406;2023-12-20T01:57:49;7.00;99.90
29575;DHT22;16507;51.046;6.406;2023-12-20T02:00:18;6.90;99.90
29575;DHT22;16507;51.046;6.406;2023-12-20T02:02:44;6.90;99.90
29575;DHT22;16507;51.046;6.406;2023-12-20T02:05:11;6.80;99.90
29575;DHT22;16507;51.046;6.406;2023-12-20T02:07:36;6.80;99.90
29575;DHT22;16507;51.046;6.406;2023-12-20T02:10:02;6.80;99.90
29575;DHT22;16507;51.046;6.406;2023-12-20T02:12:29;6.80;99.90
29575;DHT22;16507;51.046;6.406;2023-12-20T02:14:55;6.90;99.90
29575;DHT22;16507;51.046;6.406;2023-12-20T02:17:24;6.80;99.90
29575;DHT22;16507;51.046;6.406;2023-12-20T02:19:50;6.90;99.90
29575;DHT22;16507;51.046;6.406;2023-12-20T02:22:16;6.90;99.90
29575;DHT22;16507;51.046;6.406;2023-12-20T02:24:41;6.90;99.90
29575;DHT22;16507;51.046;6.406;2023-12-20T02:27:07;7.00;99.90
29575;DHT22;16507;51.046;6.406;2023-12-20T02:29:34;6.90;99.90
29575;DHT22;16507;51.046;6.406;2023-12-20T02:32:00;7.00;99.90
29575;DHT22;16507;51.046;6.406;2023-12-20T02:34:26;7.00;99.90
29575;DHT22;16507;51.046;6.406;2023-12-20T02:36:51;7.00;99.90
29575;DHT22;16507;51.046;6.406;2023-12-20T02:39:18;7.00;99.90
29575;DHT22;16507;51.046;6.406;2023-12-20T02:41:44;7.10;99.90
29575;DHT22;16507;51.046;6.406;2023-12-20T02:44:10;7.10;99.90
29575;DHT22;16507;51.046;6.406;2023-12-20T02:46:35;7.10;99.90
29575;DHT22;16507;51.046;6.406;2023-12-20T02:49:01;7.10;99.90
29575;DHT22;16507;51.046;6.406;2023-12-20T02:51:27;7.20;99.90
29575;DHT22;16507;51.046;6.406;2023-12-20T02:53:52;7.20;99.90
29575;DHT22;16507;51.046;6.406;2023-12-20T02:56:18;7.20;99.90
29575;DHT22;16507;51.046;6.406;2023-12-20T02:58:43;7.10;99.90
29575;DHT22;16507;51.046;6.406;2023-12-20T03:01:09;7.10;99.90
29575;DHT22;16507;51.046;6.406;2023-12-20T03:03:35;7.00;99.90
29575;DHT22;16507;51.046;6.406;2023-12-20T03:06:00;7.00;99.90
29575;DHT22;16507;51.046;6.406;2023-12-20T03:08:26;7.00;99.90
29575;DHT22;16507;51.046;6.406;2023-12-20T03:10:51;6.90;99.90
29575;DHT22;16507;51.046;6.406;2023-12-20T03:13:18;6.90;99.90
29575;DHT22;16507;51.046;6.406;2023-12-20T03:15:45;6.90;99.90
29575;DHT22;16507;51.046;6.406;2023-12-20T03:18:10;6.90;99.90
29575;DHT22;16507;51.046;6.406;2023-12-20T03:20:36;6.90;99.90
29575;DHT22;16507;51.046;6.406;2023-12-20T03:23:02;7.00;99.90
29575;DHT22;16507;51.046;6.406;2023-12-20T03:25:27;7.00;99.90
29575;DHT22;16507;51.046;6.406;2023-12-20T03:27:53;7.00;99.90
29575;DHT22;16507;51.046;6.406;2023-12-20T03:30:19;7.00;99.90
29575;DHT22;16507;51.046;6.406;2023-12-20T03:32:45;7.00;99.90
29575;DHT22;16507;51.046;6.406;2023-12-20T03:35:11;7.00;99.90
29575;DHT22;16507;51.046;6.406;2023-12-20T03:37:36;7.00;99.90
29575;DHT22;16507;51.046;6.406;2023-12-20T03:40:02;6.90;99.90
29575;DHT22;16507;51.046;6.406;2023-12-20T03:42:28;6.90;99.90
29575;DHT22;16507;51.046;6.406;2023-12-20T03:44:54;6.90;99.90
29575;DHT22;16507;51.046;6.406;2023-12-20T03:47:19;6.80;99.90
29575;DHT22;16507;51.046;6.406;2023-12-20T03:49:45;6.80;99.90
29575;DHT22;16507;51.046;6.406;2023-12-20T03:52:10;6.70;99.90
29575;DHT22;16507;51.046;6.406;2023-12-20T03:54:36;6.70;99.90
29575;DHT22;16507;51.046;6.406;2023-12-20T03:57:02;6.60;99.90
29575;DHT22;16507;51.046;6.406;2023-12-20T03:59:27;6.60;99.90
29575;DHT22;16507;51.046;6.406;2023-12-20T04:01:53;6.60;99.90
29575;DHT22;16507;51.046;6.406;2023-12-20T04:04:19;6.60;99.90
29575;DHT22;16507;51.046;6.406;2023-12-20T04:06:44;6.70;99.90
29575;DHT22;16507;51.046;6.406;2023-12-20T04:09:10;6.80;99.90
29575;DHT22;16507;51.046;6.406;2023-12-20T04:11:39;6.80;99.90
29575;DHT22;16507;51.046;6.406;2023-12-20T04:14:04;6.80;99.90
29575;DHT22;16507;51.046;6.406;2023-12-20T04:16:30;6.70;99.90
29575;DHT22;16507;51.046;6.406;2023-12-20T04:18:56;6.70;99.90
29575;DHT22;16507;51.046;6.406;2023-12-20T04:21:21;6.60;99.90
29575;DHT22;16507;51.046;6.406;2023-12-20T04:23:47;6.60;99.90
29575;DHT22;16507;51.046;6.406;2023-12-20T04:26:13;6.60;99.90
29575;DHT22;16507;51.046;6.406;2023-12-20T04:28:38;6.60;99.90
29575;DHT22;16507;51.046;6.406;2023-12-20T04:31:04;6.60;99.90
29575;DHT22;16507;51.046;6.406;2023-12-20T04:33:29;6.50;99.90
29575;DHT22;16507;51.046;6.406;2023-12-20T04:35:55;6.50;99.90
29575;DHT22;16507;51.046;6.406;2023-12-20T04:38:20;6.50;99.90
29575;DHT22;16507;51.046;6.406;2023-12-20T04:40:46;6.50;99.90
29575;DHT22;16507;51.046;6.406;2023-12-20T04:43:13;6.50;99.90
29575;DHT22;16507;51.046;6.406;2023-12-20T04:45:38;6.50;99.90
29575;DHT22;16507;51.046;6.406;2023-12-20T04:48:05;6.50;99.90
29575;DHT22;16507;51.046;6.406;2023-12-20T04:50:30;6.40;99.90
29575;DHT22;16507;51.046;6.406;2023-12-20T04:52:56;6.50;99.90
29575;DHT22;16507;51.046;6.406;2023-12-20T04:55:22;6.50;99.90
29575;DHT22;16507;51.046;6.406;2023-12-20T04:57:47;6.50;99.90
29575;DHT22;16507;51.046;6.406;2023-12-20T05:00:13;6.40;99.90
29575;DHT22;16507;51.046;6.406;2023-12-20T05:02:40;6.50;99.90
29575;DHT22;16507;51.046;6.406;2023-12-20T05:05:07;6.40;99.90
29575;DHT22;16507;51.046;6.406;2023-12-20T05:07:32;6.50;99.90
29575;DHT22;16507;51.046;6.406;2023-12-20T05:09:58;6.50;99.90
29575;DHT22;16507;51.046;6.406;2023-12-20T05:12:24;6.60;99.90
29575;DHT22;16507;51.046;6.406;2023-12-20T05:14:51;6.50;99.90
29575;DHT22;16507;51.046;6.406;2023-12-20T05:17:17;6.50;99.90
29575;DHT22;16507;51.046;6.406;2023-12-20T05:19:43;6.50;99.90
29575;DHT22;16507;51.046;6.406;2023-12-20T05:22:09;6.60;99.90
29575;DHT22;16507;51.046;6.406;2023-12-20T05:24:34;6.60;99.90
29575;DHT22;16507;51.046;6.406;2023-12-20T05:27:00;6.60;99.90
29575;DHT22;16507;51.046;6.406;2023-12-20T05:29:26;6.60;99.90
29575;DHT22;16507;51.046;6.406;2023-12-20T05:31:51;6.70;99.90
29575;DHT22;16507;51.046;6.406;2023-12-20T05:34:17;6.70;99.90
29575;DHT22;16507;51.046;6.406;2023-12-20T05:36:42;6.60;99.90
29575;DHT22;16507;51.046;6.406;2023-12-20T05:39:08;6.60;99.90
29575;DHT22;16507;51.046;6.406;2023-12-20T05:41:33;6.70;99.90
29575;DHT22;16507;51.046;6.406;2023-12-20T05:43:59;6.70;99.90
29575;DHT22;16507;51.046;6.406;2023-12-20T05:46:25;6.80;99.90
29575;DHT22;16507;51.046;6.406;2023-12-20T05:48:51;6.80;99.90
29575;DHT22;16507;51.046;6.406;2023-12-20T05:51:17;6.80;99.90
29575;DHT22;16507;51.046;6.406;2023-12-20T05:53:43;6.80;99.90
29575;DHT22;16507;51.046;6.406;2023-12-20T05:56:09;6.80;99.90
29575;DHT22;16507;51.046;6.406;2023-12-20T05:58:35;6.90;99.90
29575;DHT22;16507;51.046;6.406;2023-12-20T06:01:03;6.90;99.90
29575;DHT22;16507;51.046;6.406;2023-12-20T06:03:29;6.90;99.90
29575;DHT22;16507;51.046;6.406;2023-12-20T06:05:54;6.90;99.90
29575;DHT22;16507;51.046;6.406;2023-12-20T06:08:23;6.90;99.90
29575;DHT22;16507;51.046;6.406;2023-12-20T06:10:49;6.90;99.90
29575;DHT22;16507;51.046;6.406;2023-12-20T06:13:14;6.90;99.90
29575;DHT22;16507;51.046;6.406;2023-12-20T06:15:40;6.80;99.90
29575;DHT22;16507;51.046;6.406;2023-12-20T06:18:06;6.90;99.90
29575;DHT22;16507;51.046;6.406;2023-12-20T06:20:35;6.90;99.90
29575;DHT22;16507;51.046;6.406;2023-12-20T06:23:01;6.90;99.90
29575;DHT22;16507;51.046;6.406;2023-12-20T06:25:27;7.00;99.90
29575;DHT22;16507;51.046;6.406;2023-12-20T06:27:52;7.00;99.90
29575;DHT22;16507;51.046;6.406;2023-12-20T06:30:18;7.00;99.90
29575;DHT22;16507;51.046;6.406;2023-12-20T06:32:44;7.00;99.90
29575;DHT22;16507;51.046;6.406;2023-12-20T06:35:09;7.00;99.90
29575;DHT22;16507;51.046;6.406;2023-12-20T06:37:35;7.00;99.90
29575;DHT22;16507;51.046;6.406;2023-12-20T06:40:01;6.90;99.90
29575;DHT22;16507;51.046;6.406;2023-12-20T06:42:26;7.00;99.90
29575;DHT22;16507;51.046;6.406;2023-12-20T06:44:52;6.90;99.90
29575;DHT22;16507;51.046;6.406;2023-12-20T06:47:18;6.90;99.90
29575;DHT22;16507;51.046;6.406;2023-12-20T06:49:43;7.00;99.90
29575;DHT22;16507;51.046;6.406;2023-12-20T06:52:09;6.90;99.90
29575;DHT22;16507;51.046;6.406;2023-12-20T06:54:35;6.90;99.90
29575;DHT22;16507;51.046;6.406;2023-12-20T06:57:01;6.90;99.90
29575;DHT22;16507;51.046;6.406;2023-12-20T06:59:29;6.90;99.90
29575;DHT22;16507;51.046;6.406;2023-12-20T07:01:54;6.90;99.90
29575;DHT22;16507;51.046;6.406;2023-12-20T07:04:20;6.90;99.90
29575;DHT22;16507;51.046;6.406;2023-12-20T07:06:50;6.90;99.90
29575;DHT22;16507;51.046;6.406;2023-12-20T07:09:22;6.90;99.90
29575;DHT22;16507;51.046;6.406;2023-12-20T07:11:48;6.90;99.90
29575;DHT22;16507;51.046;6.406;2023-12-20T07:14:14;6.90;99.90
29575;DHT22;16507;51.046;6.406;2023-12-20T07:16:40;6.90;99.90
29575;DHT22;16507;51.046;6.406;2023-12-20T07:19:06;6.90;99.90
29575;DHT22;16507;51.046;6.406;2023-12-20T07:21:31;6.80;99.90
29575;DHT22;16507;51.046;6.406;2023-12-20T07:23:57;6.80;99.90
29575;DHT22;16507;51.046;6.406;2023-12-20T07:26:23;6.80;99.90
29575;DHT22;16507;51.046;6.406;2023-12-20T07:28:49;6.70;99.90
29575;DHT22;16507;51.046;6.406;2023-12-20T07:31:18;6.70;99.90
29575;DHT22;16507;51.046;6.406;2023-12-20T07:33:43;6.70;99.90
29575;DHT22;16507;51.046;6.406;2023-12-20T07:36:09;6.70;99.90
29575;DHT22;16507;51.046;6.406;2023-12-20T07:38:35;6.60;99.90
29575;DHT22;16507;51.046;6.406;2023-12-20T07:41:00;6.60;99.90
29575;DHT22;16507;51.046;6.406;2023-12-20T07:43:26;6.60;99.90
29575;DHT22;16507;51.046;6.406;2023-12-20T07:45:51;6.50;99.90
29575;DHT22;16507;51.046;6.406;2023-12-20T07:48:17;6.50;99.90
29575;DHT22;16507;51.046;6.406;2023-12-20T07:50:43;6.50;99.90
29575;DHT22;16507;51.046;6.406;2023-12-20T07:53:08;6.40;99.90
29575;DHT22;16507;51.046;6.406;2023-12-20T07:55:34;6.40;99.90
29575;DHT22;16507;51.046;6.406;2023-12-20T07:58:00;6.40;99.90
29575;DHT22;16507;51.046;6.406;2023-12-20T08:00:25;6.40;99.90
29575;DHT22;16507;51.046;6.406;2023-12-20T08:02:51;6.50;99.90
29575;DHT22;16507;51.046;6.406;2023-12-20T08:05:17;6.50;99.90
29575;DHT22;16507;51.046;6.406;2023-12-20T08:07:42;6.50;99.90
29575;DHT22;16507;51.046;6.406;2023-12-20T08:10:08;6.40;99.90
29575;DHT22;16507;51.046;6.406;2023-12-20T08:12:34;6.40;99.90
29575;DHT22;16507;51.046;6.406;2023-12-20T08:15:00;6.40;99.90
29575;DHT22;16507;51.046;6.406;2023-12-20T08:17:25;6.40;99.90
29575;DHT22;16507;51.046;6.406;2023-12-20T08:19:51;6.40;99.90
29575;DHT22;16507;51.046;6.406;2023-12-20T08:22:17;6.40;99.90
29575;DHT22;16507;51.046;6.406;2023-12-20T08:24:42;6.40;99.90
29575;DHT22;16507;51.046;6.406;2023-12-20T08:27:08;6.50;99.90
29575;DHT22;16507;51.046;6.406;2023-12-20T08:29:35;6.50;99.90
29575;DHT22;16507;51.046;6.406;2023-12-20T08:32:01;6.50;99.90
29575;DHT22;16507;51.046;6.406;2023-12-20T08:34:27;6.50;99.90
29575;DHT22;16507;51.046;6.406;2023-12-20T08:36:52;6.50;99.90
29575;DHT22;16507;51.046;6.406;2023-12-20T08:39:18;6.50;99.90
29575;DHT22;16507;51.046;6.406;2023-12-20T08:41:44;6.50;99.90
29575;DHT22;16507;51.046;6.406;2023-12-20T08:44:09;6.60;99.90
29575;DHT22;16507;51.046;6.406;2023-12-20T08:46:35;6.60;99.90
29575;DHT22;16507;51.046;6.406;2023-12-20T08:49:01;6.60;99.90
29575;DHT22;16507;51.046;6.406;2023-12-20T08:51:27;6.70;99.90
29575;DHT22;16507;51.046;6.406;2023-12-20T08:53:53;6.80;99.90
29575;DHT22;16507;51.046;6.406;2023-12-20T08:56:19;6.80;99.90
29575;DHT22;16507;51.046;6.406;2023-12-20T08:58:46;6.80;99.90
29575;DHT22;16507;51.046;6.406;2023-12-20T09:01:12;6.80;99.90
29575;DHT22;16507;51.046;6.406;2023-12-20T09:03:39;6.80;99.90
29575;DHT22;16507;51.046;6.406;2023-12-20T09:06:05;6.90;99.90
29575;DHT22;16507;51.046;6.406;2023-12-20T09:08:31;6.90;99.90
29575;DHT22;16507;51.046;6.406;2023-12-20T09:10:56;6.90;99.90
29575;DHT22;16507;51.046;6.406;2023-12-20T09:13:22;7.00;99.90
29575;DHT22;16507;51.046;6.406;2023-12-20T09:15:56;7.00;99.90
29575;DHT22;16507;51.046;6.406;2023-12-20T09:18:21;7.00;99.90
29575;DHT22;16507;51.046;6.406;2023-12-20T09:20:47;7.00;99.90
29575;DHT22;16507;51.046;6.406;2023-12-20T09:23:12;7.00;99.90
29575;DHT22;16507;51.046;6.406;2023-12-20T09:25:38;7.00;99.90
29575;DHT22;16507;51.046;6.406;2023-12-20T09:28:07;7.00;99.90
29575;DHT22;16507;51.046;6.406;2023-12-20T09:30:32;7.00;99.90
29575;DHT22;16507;51.046;6.406;2023-12-20T09:32:58;7.00;99.90
29575;DHT22;16507;51.046;6.406;2023-12-20T09:35:24;7.00;99.90
29575;DHT22;16507;51.046;6.406;2023-12-20T09:37:49;7.00;99.90
29575;DHT22;16507;51.046;6.406;2023-12-20T09:40:18;7.10;99.90
29575;DHT22;16507;51.046;6.406;2023-12-20T09:42:56;7.10;99.90
29575;DHT22;16507;51.046;6.406;2023-12-20T09:45:22;7.10;99.90
29575;DHT22;16507;51.046;6.406;2023-12-20T09:47:53;7.20;99.90
29575;DHT22;16507;51.046;6.406;2023-12-20T09:50:21;7.20;99.90
29575;DHT22;16507;51.046;6.406;2023-12-20T09:52:50;7.20;99.90
29575;DHT22;16507;51.046;6.406;2023-12-20T09:55:20;7.20;99.90
29575;DHT22;16507;51.046;6.406;2023-12-20T09:57:46;7.30;99.90
29575;DHT22;16507;51.046;6.406;2023-12-20T10:00:13;7.40;99.90
29575;DHT22;16507;51.046;6.406;2023-12-20T10:03:06;7.40;99.90
29575;DHT22;16507;51.046;6.406;2023-12-20T10:05:32;7.40;99.90
29575;DHT22;16507;51.046;6.406;2023-12-20T10:07:59;7.40;99.90
29575;DHT22;16507;51.046;6.406;2023-12-20T10:10:26;7.40;99.90
29575;DHT22;16507;51.046;6.406;2023-12-20T10:13:21;7.30;99.90
29575;DHT22;16507;51.046;6.406;2023-12-20T10:15:47;7.30;99.90
29575;DHT22;16507;51.046;6.406;2023-12-20T10:18:12;7.30;99.90
29575;DHT22;16507;51.046;6.406;2023-12-20T10:20:40;7.30;99.90
29575;DHT22;16507;51.046;6.406;2023-12-20T10:23:07;7.30;99.90
29575;DHT22;16507;51.046;6.406;2023-12-20T10:25:33;7.30;99.90
29575;DHT22;16507;51.046;6.406;2023-12-20T10:28:15;7.30;99.90
29575;DHT22;16507;51.046;6.406;2023-12-20T10:30:46;7.30;99.90
29575;DHT22;16507;51.046;6.406;2023-12-20T10:33:12;7.30;99.90
29575;DHT22;16507;51.046;6.406;2023-12-20T10:35:38;7.30;99.90
29575;DHT22;16507;51.046;6.406;2023-12-20T10:38:05;7.30;99.90
29575;DHT22;16507;51.046;6.406;2023-12-20T10:40:34;7.30;99.90
29575;DHT22;16507;51.046;6.406;2023-12-20T10:43:03;7.30;99.90
29575;DHT22;16507;51.046;6.406;2023-12-20T10:45:28;7.30;99.90
29575;DHT22;16507;51.046;6.406;2023-12-20T10:47:54;7.30;99.90
29575;DHT22;16507;51.046;6.406;2023-12-20T10:50:21;7.30;99.90
29575;DHT22;16507;51.046;6.406;2023-12-20T10:52:47;7.30;99.90
29575;DHT22;16507;51.046;6.406;2023-12-20T10:55:13;7.30;99.90
29575;DHT22;16507;51.046;6.406;2023-12-20T10:57:39;7.30;99.90
29575;DHT22;16507;51.046;6.406;2023-12-20T11:00:08;7.30;99.90
29575;DHT22;16507;51.046;6.406;2023-12-20T11:02:40;7.40;99.90
29575;DHT22;16507;51.046;6.406;2023-12-20T11:08:09;7.30;99.90
29575;DHT22;16507;51.046;6.406;2023-12-20T11:13:48;7.40;99.90
29575;DHT22;16507;51.046;6.406;2023-12-20T11:16:19;7.40;99.90
29575;DHT22;16507;51.046;6.406;2023-12-20T11:18:45;7.40;99.90
29575;DHT22;16507;51.046;6.406;2023-12-20T11:21:11;7.40;99.90
29575;DHT22;16507;51.046;6.406;2023-12-20T11:23:36;7.40;99.90
29575;DHT22;16507;51.046;6.406;2023-12-20T11:26:02;7.50;99.90
29575;DHT22;16507;51.046;6.406;2023-12-20T11:28:28;7.50;99.90
29575;DHT22;16507;51.046;6.406;2023-12-20T11:30:57;7.50;99.90
29575;DHT22;16507;51.046;6.406;2023-12-20T11:33:45;7.50;99.90
29575;DHT22;16507;51.046;6.406;2023-12-20T11:36:14;7.50;99.90
29575;DHT22;16507;51.046;6.406;2023-12-20T11:38:58;7.50;99.90
29575;DHT22;16507;51.046;6.406;2023-12-20T11:41:25;7.50;99.90
29575;DHT22;16507;51.046;6.406;2023-12-20T11:43:55;7.40;99.90
29575;DHT22;16507;51.046;6.406;2023-12-20T11:46:22;7.50;99.90
29575;DHT22;16507;51.046;6.406;2023-12-20T11:48:48;7.40;99.90
29575;DHT22;16507;51.046;6.406;2023-12-20T11:51:14;7.40;99.90
29575;DHT22;16507;51.046;6.406;2023-12-20T11:53:40;7.50;99.90
29575;DHT22;16507;51.046;6.406;2023-12-20T11:56:07;7.40;99.90
29575;DHT22;16507;51.046;6.406;2023-12-20T11:58:34;7.40;99.90
29575;DHT22;16507;51.046;6.406;2023-12-20T12:00:59;7.40;99.90
29575;DHT22;16507;51.046;6.406;2023-12-20T12:03:25;7.40;99.90
29575;DHT22;16507;51.046;6.406;2023-12-20T12:05:51;7.40;99.90
29575;DHT22;16507;51.046;6.406;2023-12-20T12:08:17;7.50;99.90
29575;DHT22;16507;51.046;6.406;2023-12-20T12:10:44;7.40;99.90
29575;DHT22;16507;51.046;6.406;2023-12-20T12:13:10;7.40;99.90
29575;DHT22;16507;51.046;6.406;2023-12-20T12:15:37;7.50;99.90
29575;DHT22;16507;51.046;6.406;2023-12-20T12:18:03;7.50;99.90
29575;DHT22;16507;51.046;6.406;2023-12-20T12:20:29;7.50;99.90
29575;DHT22;16507;51.046;6.406;2023-12-20T12:25:25;7.40;99.90
29575;DHT22;16507;51.046;6.406;2023-12-20T12:27:51;7.40;99.90
29575;DHT22;16507;51.046;6.406;2023-12-20T12:30:16;7.40;99.90
29575;DHT22;16507;51.046;6.406;2023-12-20T12:32:44;7.40;99.90
29575;DHT22;16507;51.046;6.406;2023-12-20T12:35:10;7.40;99.90
29575;DHT22;16507;51.046;6.406;2023-12-20T12:37:38;7.40;99.90
29575;DHT22;16507;51.046;6.406;2023-12-20T12:40:10;7.40;99.90
29575;DHT22;16507;51.046;6.406;2023-12-20T12:42:37;7.40;99.90
29575;DHT22;16507;51.046;6.406;2023-12-20T12:45:03;7.40;99.90
29575;DHT22;16507;51.046;6.406;2023-12-20T12:47:29;7.40;99.90
29575;DHT22;16507;51.046;6.406;2023-12-20T12:49:56;7.40;99.90
29575;DHT22;16507;51.046;6.406;2023-12-20T12:52:21;7.50;99.90
29575;DHT22;16507;51.046;6.406;2023-12-20T12:54:48;7.40;99.90
29575;DHT22;16507;51.046;6.406;2023-12-20T12:57:14;7.40;99.90
29575;DHT22;16507;51.046;6.406;2023-12-20T12:59:42;7.50;99.90
29575;DHT22;16507;51.046;6.406;2023-12-20T13:02:09;7.50;99.90
29575;DHT22;16507;51.046;6.406;2023-12-20T13:04:34;7.50;99.90
29575;DHT22;16507;51.046;6.406;2023-12-20T13:07:00;7.50;99.90
29575;DHT22;16507;51.046;6.406;2023-12-20T13:09:26;7.50;99.90
29575;DHT22;16507;51.046;6.406;2023-12-20T13:11:51;7.50;99.90
29575;DHT22;16507;51.046;6.406;2023-12-20T13:14:17;7.60;99.90
29575;DHT22;16507;51.046;6.406;2023-12-20T13:16:42;7.60;99.90
29575;DHT22;16507;51.046;6.406;2023-12-20T13:19:10;7.70;99.90
29575;DHT22;16507;51.046;6.406;2023-12-20T13:21:36;7.70;99.90
29575;DHT22;16507;51.046;6.406;2023-12-20T13:24:01;7.70;99.90
29575;DHT22;16507;51.046;6.406;2023-12-20T13:26:27;7.70;99.90
29575;DHT22;16507;51.046;6.406;2023-12-20T13:28:54;7.70;99.90
29575;DHT22;16507;51.046;6.406;2023-12-20T13:31:20;7.60;99.90
29575;DHT22;16507;51.046;6.406;2023-12-20T13:33:46;7.60;99.90
29575;DHT22;16507;51.046;6.406;2023-12-20T13:36:12;7.60;99.90
29575;DHT22;16507;51.046;6.406;2023-12-20T13:38:38;7.50;99.90
29575;DHT22;16507;51.046;6.406;2023-12-20T13:41:03;7.50;99.90
29575;DHT22;16507;51.046;6.406;2023-12-20T13:43:30;7.60;99.90
29575;DHT22;16507;51.046;6.406;2023-12-20T13:45:58;7.50;99.90
29575;DHT22;16507;51.046;6.406;2023-12-20T13:48:24;7.40;99.90
29575;DHT22;16507;51.046;6.406;2023-12-20T13:50:49;7.40;99.90
29575;DHT22;16507;51.046;6.406;2023-12-20T13:53:15;7.50;99.90
29575;DHT22;16507;51.046;6.406;2023-12-20T13:55:41;7.60;99.90
29575;DHT22;16507;51.046;6.406;2023-12-20T13:58:06;7.60;99.90
29575;DHT22;16507;51.046;6.406;2023-12-20T14:00:32;7.60;99.90
29575;DHT22;16507;51.046;6.406;2023-12-20T14:02:58;7.70;99.90
29575;DHT22;16507;51.046;6.406;2023-12-20T14:05:24;7.70;99.90
29575;DHT22;16507;51.046;6.406;2023-12-20T14:07:49;7.80;99.90
29575;DHT22;16507;51.046;6.406;2023-12-20T14:10:16;7.80;99.90
29575;DHT22;16507;51.046;6.406;2023-12-20T14:12:41;7.80;99.90
29575;DHT22;16507;51.046;6.406;2023-12-20T14:15:07;7.80;99.90
29575;DHT22;16507;51.046;6.406;2023-12-20T14:17:39;7.90;99.90
29575;DHT22;16507;51.046;6.406;2023-12-20T14:20:07;7.90;99.90
29575;DHT22;16507;51.046;6.406;2023-12-20T14:22:34;7.90;99.90
29575;DHT22;16507;51.046;6.406;2023-12-20T14:24:59;8.00;99.90
29575;DHT22;16507;51.046;6.406;2023-12-20T14:27:26;8.00;99.90
29575;DHT22;16507;51.046;6.406;2023-12-20T14:29:53;8.00;99.90
29575;DHT22;16507;51.046;6.406;2023-12-20T14:32:19;8.00;99.90
29575;DHT22;16507;51.046;6.406;2023-12-20T14:34:45;8.00;99.90
29575;DHT22;16507;51.046;6.406;2023-12-20T14:37:10;8.00;99.90
29575;DHT22;16507;51.046;6.406;2023-12-20T14:39:36;7.90;99.90
29575;DHT22;16507;51.046;6.406;2023-12-20T14:42:09;8.00;99.90
29575;DHT22;16507;51.046;6.406;2023-12-20T14:44:38;8.00;99.90
29575;DHT22;16507;51.046;6.406;2023-12-20T14:47:05;8.00;99.90
29575;DHT22;16507;51.046;6.406;2023-12-20T14:49:30;8.00;99.90
29575;DHT22;16507;51.046;6.406;2023-12-20T14:51:56;7.90;99.90
29575;DHT22;16507;51.046;6.406;2023-12-20T14:54:22;7.90;99.90
29575;DHT22;16507;51.046;6.406;2023-12-20T14:56:47;7.80;99.90
29575;DHT22;16507;51.046;6.406;2023-12-20T14:59:13;7.70;99.90
29575;DHT22;16507;51.046;6.406;2023-12-20T15:01:39;7.70;99.90
29575;DHT22;16507;51.046;6.406;2023-12-20T15:04:09;7.70;99.90
29575;DHT22;16507;51.046;6.406;2023-12-20T15:06:35;7.80;99.90
29575;DHT22;16507;51.046;6.406;2023-12-20T15:09:01;7.80;99.90
29575;DHT22;16507;51.046;6.406;2023-12-20T15:11:28;7.80;99.90
29575;DHT22;16507;51.046;6.406;2023-12-20T15:13:54;7.80;99.90
29575;DHT22;16507;51.046;6.406;2023-12-20T15:16:24;7.80;99.90
29575;DHT22;16507;51.046;6.406;2023-12-20T15:18:51;7.90;99.90
29575;DHT22;16507;51.046;6.406;2023-12-20T15:21:17;7.90;99.90
29575;DHT22;16507;51.046;6.406;2023-12-20T15:23:43;7.90;99.90
29575;DHT22;16507;51.046;6.406;2023-12-20T15:26:18;7.90;99.90
29575;DHT22;16507;51.046;6.406;2023-12-20T15:28:44;7.90;99.90
29575;DHT22;16507;51.046;6.406;2023-12-20T15:31:10;7.90;99.90
29575;DHT22;16507;51.046;6.406;2023-12-20T15:33:36;8.00;99.90
29575;DHT22;16507;51.046;6.406;2023-12-20T15:36:01;7.90;99.90
29575;DHT22;16507;51.046;6.406;2023-12-20T15:38:27;8.00;99.90
29575;DHT22;16507;51.046;6.406;2023-12-20T15:40:52;8.00;99.90
29575;DHT22;16507;51.046;6.406;2023-12-20T15:43:18;7.90;99.90
29575;DHT22;16507;51.046;6.406;2023-12-20T15:45:44;7.90;99.90
29575;DHT22;16507;51.046;6.406;2023-12-20T15:48:11;7.90;99.90